Walpi, Arizona
Current Conditions -  °F | °C
As of 3:56 AM on Monday 22 Dec 2014 (Local Time) from KINW Reporting Station
Clear Clear  
Wind Chill: 32°   Ceiling: Unl
Heat Index: 32°   Visibility: 10mi
Dew Point: 30°   Wind: 3mph
Humidity: 92%   Direction: 280°W
Pressure: 30.03"   Gusts: NA
Location:  35.9347°N, 110.453°W
Report Text: KINW 221056Z AUTO 28003KT 10SM CLR 00/M01 A3003 RMK AO2 SLP160 T00001011
Loading
Personal Weather Stations






























Interactive Weather Map New forecast layout! Learn more

10-Day Weather Forecast

Advertisements
Track Severe Weather on mobile